createdAt,value
2023-05-24T00:00:53.177Z,5.73
2023-05-24T00:05:58.242Z,5.33
2023-05-24T00:11:01.754Z,5.93
2023-05-24T00:16:05.051Z,5.87
2023-05-24T00:21:09.784Z,5.87
2023-05-24T00:26:13.363Z,5.83
2023-05-24T00:31:16.622Z,5.57
2023-05-24T00:36:21.506Z,5.13
2023-05-24T00:41:24.548Z,5.70
2023-05-24T00:46:30.775Z,4.83
2023-05-24T00:51:37.278Z,5.47
2023-05-24T00:56:40.948Z,4.40
2023-05-24T01:01:46.969Z,4.13
2023-05-24T01:07:05.636Z,4.87
2023-05-24T01:12:20.897Z,4.30
2023-05-24T01:17:28.253Z,4.27
2023-05-24T01:22:50.030Z,4.10
2023-05-24T01:27:55.978Z,4.50
2023-05-24T01:32:59.600Z,3.90
2023-05-24T01:38:02.671Z,4.47
2023-05-24T01:43:16.682Z,4.13
2023-05-24T01:48:27.173Z,4.10
2023-05-24T01:53:35.470Z,4.10
2023-05-24T01:58:41.873Z,4.40
2023-05-24T02:03:45.136Z,4.40
2023-05-24T02:08:48.237Z,4.43
2023-05-24T02:13:52.841Z,4.07
2023-05-24T02:18:55.905Z,4.60
2023-05-24T02:23:59.370Z,4.60
2023-05-24T02:29:04.100Z,4.90
2023-05-24T02:34:07.634Z,4.80
2023-05-24T02:39:11.270Z,4.23
2023-05-24T02:44:16.124Z,4.43
2023-05-24T02:49:19.176Z,4.23
2023-05-24T02:54:22.640Z,3.57
2023-05-24T02:59:27.010Z,4.53
2023-05-24T03:04:30.472Z,3.77
2023-05-24T03:09:33.532Z,3.53
2023-05-24T03:14:38.294Z,4.00
2023-05-24T03:19:41.979Z,3.23
2023-05-24T03:24:46.222Z,3.77
2023-05-24T03:29:51.010Z,3.43
2023-05-24T03:34:54.925Z,3.50
2023-05-24T03:39:58.222Z,3.83
2023-05-24T03:45:02.996Z,3.63
2023-05-24T03:50:07.138Z,3.90
2023-05-24T03:55:10.638Z,3.47
2023-05-24T04:00:16.278Z,5.03
2023-05-24T04:05:19.338Z,4.67
2023-05-24T04:10:22.779Z,4.80
2023-05-24T04:15:27.420Z,4.40
2023-05-24T04:20:30.708Z,4.60
2023-05-24T04:25:34.283Z,4.53
2023-05-24T04:30:38.722Z,4.20
2023-05-24T04:35:41.987Z,4.13
2023-05-24T04:40:45.513Z,5.13
2023-05-24T04:45:50.740Z,5.57
2023-05-24T04:50:55.041Z,4.90
2023-05-24T04:55:58.092Z,5.13
2023-05-24T05:01:02.719Z,4.10
2023-05-24T05:06:05.931Z,4.83
2023-05-24T05:11:09.360Z,4.67
2023-05-24T05:16:14.112Z,4.83
2023-05-24T05:21:17.463Z,4.27
2023-05-24T05:26:21.529Z,4.37
2023-05-24T05:31:26.472Z,4.33
2023-05-24T05:36:29.595Z,5.20
2023-05-24T05:41:32.807Z,5.43
2023-05-24T05:46:37.290Z,4.83
2023-05-24T05:51:40.555Z,4.73
2023-05-24T05:56:46.010Z,5.10
2023-05-24T06:01:51.185Z,4.60
2023-05-24T06:06:54.815Z,4.40
2023-05-24T06:11:57.876Z,4.90
2023-05-24T06:17:03.181Z,4.73
2023-05-24T06:22:06.536Z,4.27
2023-05-24T06:27:09.577Z,4.30
2023-05-24T06:32:14.179Z,4.50
2023-05-24T06:37:17.524Z,4.63
2023-05-24T06:42:20.590Z,4.50
2023-05-24T06:47:25.598Z,4.83
2023-05-24T06:52:28.798Z,4.17
2023-05-24T06:57:32.234Z,4.93
2023-05-24T07:02:36.726Z,4.80
2023-05-24T07:07:40.602Z,5.90
2023-05-24T07:12:43.920Z,5.57
2023-05-24T07:17:49.446Z,3.77
2023-05-24T07:22:53.484Z,4.43
2023-05-24T07:27:56.628Z,4.87
2023-05-24T07:33:01.869Z,4.20
2023-05-24T07:38:05.815Z,4.57
2023-05-24T07:43:09.116Z,4.67
2023-05-24T07:48:13.769Z,4.67
2023-05-24T07:53:17.873Z,4.77
2023-05-24T07:58:21.473Z,4.80
2023-05-24T08:03:26.522Z,5.37
2023-05-24T08:08:29.775Z,4.87
2023-05-24T08:13:33.209Z,5.00
2023-05-24T08:18:37.962Z,4.13
2023-05-24T08:23:41.210Z,5.00
2023-05-24T08:28:44.640Z,4.60
2023-05-24T08:33:50.338Z,4.70
2023-05-24T08:38:53.486Z,4.77
2023-05-24T08:44:01.557Z,4.13
2023-05-24T08:49:07.779Z,4.77
2023-05-24T08:54:12.117Z,4.80
2023-05-24T08:59:15.445Z,4.63
2023-05-24T09:04:21.036Z,4.60
2023-05-24T09:09:29.623Z,4.07
2023-05-24T09:14:33.348Z,4.37
2023-05-24T09:19:37.937Z,4.73
2023-05-24T09:24:44.069Z,4.47
2023-05-24T09:29:48.873Z,4.03
2023-05-24T09:34:54.893Z,3.83
2023-05-24T09:39:58.931Z,4.07
2023-05-24T09:45:02.763Z,4.20
2023-05-24T09:50:17.331Z,4.00
2023-05-24T09:55:21.577Z,3.87
2023-05-24T10:00:25.264Z,4.40
2023-05-24T10:05:30.751Z,4.00
2023-05-24T10:10:34.893Z,4.30
2023-05-24T10:15:38.106Z,4.18
2023-05-24T10:20:43.492Z,4.43
2023-05-24T10:25:52.029Z,4.40
2023-05-24T10:31:07.296Z,4.23
2023-05-24T10:36:14.068Z,4.50
2023-05-24T10:41:19.411Z,4.77
2023-05-24T10:46:22.964Z,4.70
2023-05-24T10:51:35.380Z,4.27
2023-05-24T10:56:42.572Z,4.70
2023-05-24T11:01:46.146Z,4.50
2023-05-24T11:06:56.539Z,5.00
2023-05-24T11:12:04.811Z,4.80
2023-05-24T11:17:08.950Z,4.43
2023-05-24T11:22:15.344Z,4.60
2023-05-24T11:27:18.638Z,4.57
2023-05-24T11:32:23.930Z,4.23
2023-05-24T11:37:38.580Z,5.00
2023-05-24T11:42:48.878Z,4.60
2023-05-24T11:47:52.493Z,4.57
2023-05-24T11:53:03.284Z,4.77
2023-05-24T11:58:08.705Z,4.87
2023-05-24T12:03:12.870Z,4.83
2023-05-24T12:08:18.600Z,4.27
2023-05-24T12:13:23.926Z,4.23
2023-05-24T12:18:27.310Z,4.47
2023-05-24T12:23:32.780Z,4.27
2023-05-24T12:28:36.927Z,4.83
2023-05-24T12:33:40.291Z,4.53
2023-05-24T12:38:44.688Z,4.23
2023-05-24T12:43:47.775Z,4.53
2023-05-24T12:48:50.903Z,4.60
2023-05-24T12:53:55.700Z,4.33
2023-05-24T12:58:58.853Z,4.13
2023-05-24T13:04:02.117Z,3.73
2023-05-24T13:09:07.082Z,4.20
2023-05-24T13:14:11.401Z,4.53
2023-05-24T13:19:14.928Z,3.67
2023-05-24T13:24:20.369Z,3.78
2023-05-24T13:34:30.165Z,3.83
2023-05-24T13:39:35.269Z,3.53
2023-05-24T13:44:39.009Z,3.60
2023-05-24T13:49:42.235Z,3.50
2023-05-24T13:54:47.216Z,4.00
2023-05-24T13:59:50.429Z,3.27
2023-05-24T14:04:55.052Z,3.55
2023-05-24T14:10:04.495Z,3.25
2023-05-24T14:15:08.855Z,3.35
2023-05-24T14:20:13.022Z,3.20
2023-05-24T14:25:17.835Z,2.90
2023-05-24T14:30:21.013Z,3.13
2023-05-24T14:35:24.109Z,3.13
2023-05-24T14:40:28.524Z,3.38
2023-05-24T14:45:31.726Z,3.10
2023-05-24T14:50:34.775Z,3.97
2023-05-24T14:55:40.825Z,3.70
2023-05-24T15:00:45.640Z,3.93
2023-05-24T15:05:49.133Z,3.20
2023-05-24T15:10:53.714Z,3.67
2023-05-24T15:16:00.278Z,3.10
2023-05-24T15:21:03.345Z,3.30
2023-05-24T15:26:08.124Z,3.40
2023-05-24T15:31:11.521Z,2.97
2023-05-24T15:36:17.145Z,3.30
2023-05-24T15:41:21.593Z,3.33
2023-05-24T15:46:25.023Z,3.43
2023-05-24T15:56:35.655Z,3.40
2023-05-24T16:01:38.822Z,3.27
2023-05-24T16:06:42.038Z,3.70
2023-05-24T16:11:47.652Z,3.90
2023-05-24T16:16:50.935Z,3.30
2023-05-24T16:21:54.382Z,3.63
2023-05-24T16:26:59.050Z,3.50
2023-05-24T16:32:02.270Z,3.35
2023-05-24T16:37:05.425Z,3.70
2023-05-24T16:42:09.858Z,3.38
2023-05-24T16:47:12.990Z,3.47
2023-05-24T16:52:16.214Z,3.20
2023-05-24T16:57:20.644Z,3.57
2023-05-24T17:02:23.791Z,3.73
2023-05-24T17:07:27.584Z,3.60
2023-05-24T17:12:32.502Z,3.63
2023-05-24T17:17:35.660Z,4.20
2023-05-24T17:22:38.767Z,3.60
2023-05-24T17:27:43.174Z,3.73
2023-05-24T17:32:46.700Z,3.80
2023-05-24T17:37:49.782Z,4.43
2023-05-24T17:42:54.170Z,4.20
2023-05-24T17:47:57.326Z,4.20
2023-05-24T17:53:00.764Z,4.00
2023-05-24T17:58:05.292Z,3.80
2023-05-24T18:03:08.618Z,4.10
2023-05-24T18:08:11.744Z,3.73
2023-05-24T18:13:16.160Z,3.87
2023-05-24T18:18:20.047Z,3.90
2023-05-24T18:23:23.133Z,4.03
2023-05-24T18:28:27.547Z,3.77
2023-05-24T18:33:30.644Z,4.13
2023-05-24T18:38:35.182Z,3.80
2023-05-24T18:43:39.826Z,4.00
2023-05-24T18:48:45.380Z,4.83
2023-05-24T18:53:50.424Z,4.20
2023-05-24T18:58:58.554Z,4.27
2023-05-24T19:04:02.348Z,5.23
2023-05-24T19:09:05.460Z,4.10
2023-05-24T19:14:10.178Z,3.70
2023-05-24T19:19:13.279Z,4.00
2023-05-24T19:24:16.380Z,4.10
2023-05-24T19:29:20.795Z,4.33
2023-05-24T19:34:24.241Z,4.30
2023-05-24T19:39:27.777Z,4.33
2023-05-24T19:44:32.229Z,4.17
2023-05-24T19:49:35.870Z,3.97
2023-05-24T19:54:38.933Z,4.07
2023-05-24T19:59:44.213Z,4.57
2023-05-24T20:04:47.275Z,4.17
2023-05-24T20:09:50.819Z,3.70
2023-05-24T20:14:55.485Z,4.37
2023-05-24T20:19:58.617Z,4.57
2023-05-24T20:25:01.759Z,4.43
2023-05-24T20:30:08.867Z,4.80
2023-05-24T20:35:12.067Z,4.70
2023-05-24T20:40:22.429Z,4.57
2023-05-24T20:45:26.852Z,4.60
2023-05-24T20:50:30.119Z,4.23
2023-05-24T20:55:33.255Z,4.97
2023-05-24T21:00:39.835Z,4.00
2023-05-24T21:05:44.021Z,3.90
2023-05-24T21:10:47.716Z,4.00
2023-05-24T21:15:52.130Z,4.10
2023-05-24T21:20:55.567Z,3.77
2023-05-24T21:25:59.054Z,3.87
2023-05-24T21:31:03.848Z,3.80
2023-05-24T21:36:07.258Z,3.80
2023-05-24T21:41:10.306Z,3.70
2023-05-24T21:46:14.737Z,3.23
2023-05-24T21:51:18.064Z,3.13
2023-05-24T21:56:21.665Z,3.77
2023-05-24T22:01:28.217Z,3.30
2023-05-24T22:06:31.462Z,4.27
2023-05-24T22:11:35.333Z,4.00
2023-05-24T22:16:40.174Z,4.27
2023-05-24T22:21:43.704Z,4.67
2023-05-24T22:26:47.886Z,4.20
2023-05-24T22:31:52.303Z,5.03
2023-05-24T22:36:55.892Z,4.47
2023-05-24T22:41:59.359Z,4.67
2023-05-24T22:47:04.403Z,4.90
2023-05-24T22:52:09.323Z,4.70
2023-05-24T22:57:12.748Z,5.50
2023-05-24T23:02:17.396Z,4.90
2023-05-24T23:07:21.564Z,5.30
2023-05-24T23:12:24.989Z,5.30
2023-05-24T23:17:29.447Z,5.17
2023-05-24T23:22:32.624Z,5.00
2023-05-24T23:27:35.841Z,5.87
2023-05-24T23:32:40.505Z,5.80
2023-05-24T23:37:43.814Z,5.73
2023-05-24T23:42:46.905Z,5.97
2023-05-24T23:47:53.416Z,6.47
2023-05-24T23:52:56.593Z,6.27
2023-05-24T23:58:00.317Z,6.47
